sensor_id;sensor_type;location;lat;lon;timestamp;P1;durP1;ratioP1;P2;durP2;ratioP2
38901;SDS011;24661;53.566;9.910;2022-09-13T00:00:47;3.97;;;2.97;;
38901;SDS011;24661;53.566;9.910;2022-09-13T00:03:13;8.20;;;4.27;;
38901;SDS011;24661;53.566;9.910;2022-09-13T00:05:39;5.60;;;4.30;;
38901;SDS011;24661;53.566;9.910;2022-09-13T00:08:05;4.17;;;3.37;;
38901;SDS011;24661;53.566;9.910;2022-09-13T00:10:32;6.53;;;4.27;;
38901;SDS011;24661;53.566;9.910;2022-09-13T00:12:59;7.67;;;4.47;;
38901;SDS011;24661;53.566;9.910;2022-09-13T00:15:26;6.27;;;4.20;;
38901;SDS011;24661;53.566;9.910;2022-09-13T00:17:51;6.23;;;4.10;;
38901;SDS011;24661;53.566;9.910;2022-09-13T00:20:17;5.27;;;3.87;;
38901;SDS011;24661;53.566;9.910;2022-09-13T00:22:43;4.47;;;3.13;;
38901;SDS011;24661;53.566;9.910;2022-09-13T00:25:08;2.50;;;2.30;;
38901;SDS011;24661;53.566;9.910;2022-09-13T00:27:35;3.47;;;3.10;;
38901;SDS011;24661;53.566;9.910;2022-09-13T00:30:01;4.13;;;2.63;;
38901;SDS011;24661;53.566;9.910;2022-09-13T00:32:28;4.17;;;3.13;;
38901;SDS011;24661;53.566;9.910;2022-09-13T00:34:54;3.20;;;2.73;;
38901;SDS011;24661;53.566;9.910;2022-09-13T00:37:20;4.00;;;3.03;;
38901;SDS011;24661;53.566;9.910;2022-09-13T00:39:45;3.23;;;2.93;;
38901;SDS011;24661;53.566;9.910;2022-09-13T00:42:11;3.87;;;2.63;;
38901;SDS011;24661;53.566;9.910;2022-09-13T00:44:55;4.23;;;3.47;;
38901;SDS011;24661;53.566;9.910;2022-09-13T00:50:51;4.87;;;3.37;;
38901;SDS011;24661;53.566;9.910;2022-09-13T00:53:21;4.37;;;3.13;;
38901;SDS011;24661;53.566;9.910;2022-09-13T00:56:08;6.83;;;3.23;;
38901;SDS011;24661;53.566;9.910;2022-09-13T00:59:01;6.03;;;3.40;;
38901;SDS011;24661;53.566;9.910;2022-09-13T01:01:30;4.57;;;3.50;;
38901;SDS011;24661;53.566;9.910;2022-09-13T01:04:00;5.43;;;3.57;;
38901;SDS011;24661;53.566;9.910;2022-09-13T01:06:27;3.47;;;3.17;;
38901;SDS011;24661;53.566;9.910;2022-09-13T01:08:57;4.70;;;4.30;;
38901;SDS011;24661;53.566;9.910;2022-09-13T01:11:50;5.03;;;3.90;;
38901;SDS011;24661;53.566;9.910;2022-09-13T01:14:19;5.67;;;4.27;;
38901;SDS011;24661;53.566;9.910;2022-09-13T01:16:47;4.93;;;3.77;;
38901;SDS011;24661;53.566;9.910;2022-09-13T01:19:14;4.63;;;4.10;;
38901;SDS011;24661;53.566;9.910;2022-09-13T01:22:01;6.03;;;4.37;;
38901;SDS011;24661;53.566;9.910;2022-09-13T01:35:43;6.53;;;4.83;;
38901;SDS011;24661;53.566;9.910;2022-09-13T01:38:26;4.80;;;4.30;;
38901;SDS011;24661;53.566;9.910;2022-09-13T01:47:10;7.97;;;5.67;;
38901;SDS011;24661;53.566;9.910;2022-09-13T01:50:01;5.70;;;4.63;;
38901;SDS011;24661;53.566;9.910;2022-09-13T01:52:49;5.37;;;4.00;;
38901;SDS011;24661;53.566;9.910;2022-09-13T02:00:55;5.23;;;4.73;;
38901;SDS011;24661;53.566;9.910;2022-09-13T02:06:32;6.27;;;4.60;;
38901;SDS011;24661;53.566;9.910;2022-09-13T02:09:12;7.87;;;5.00;;
38901;SDS011;24661;53.566;9.910;2022-09-13T02:11:45;4.73;;;4.23;;
38901;SDS011;24661;53.566;9.910;2022-09-13T02:14:24;7.77;;;5.17;;
38901;SDS011;24661;53.566;9.910;2022-09-13T02:19:25;8.23;;;4.90;;
38901;SDS011;24661;53.566;9.910;2022-09-13T02:21:58;7.13;;;6.10;;
38901;SDS011;24661;53.566;9.910;2022-09-13T02:24:28;6.13;;;4.90;;
38901;SDS011;24661;53.566;9.910;2022-09-13T02:26:58;6.63;;;5.00;;
38901;SDS011;24661;53.566;9.910;2022-09-13T02:29:28;9.07;;;5.70;;
38901;SDS011;24661;53.566;9.910;2022-09-13T02:32:11;6.53;;;4.97;;
38901;SDS011;24661;53.566;9.910;2022-09-13T02:35:00;6.73;;;5.20;;
38901;SDS011;24661;53.566;9.910;2022-09-13T02:37:30;9.00;;;5.50;;
38901;SDS011;24661;53.566;9.910;2022-09-13T02:40:01;7.17;;;5.07;;
38901;SDS011;24661;53.566;9.910;2022-09-13T02:42:31;5.57;;;4.47;;
38901;SDS011;24661;53.566;9.910;2022-09-13T02:45:01;6.77;;;5.33;;
38901;SDS011;24661;53.566;9.910;2022-09-13T02:50:26;6.13;;;4.93;;
38901;SDS011;24661;53.566;9.910;2022-09-13T02:58:31;8.63;;;5.83;;
38901;SDS011;24661;53.566;9.910;2022-09-13T03:00:59;8.77;;;5.77;;
38901;SDS011;24661;53.566;9.910;2022-09-13T03:03:25;7.27;;;5.40;;
38901;SDS011;24661;53.566;9.910;2022-09-13T03:05:51;8.53;;;5.97;;
38901;SDS011;24661;53.566;9.910;2022-09-13T03:08:17;9.37;;;5.77;;
38901;SDS011;24661;53.566;9.910;2022-09-13T03:13:29;7.23;;;6.10;;
38901;SDS011;24661;53.566;9.910;2022-09-13T03:16:26;7.03;;;5.57;;
38901;SDS011;24661;53.566;9.910;2022-09-13T03:30:06;6.60;;;5.33;;
38901;SDS011;24661;53.566;9.910;2022-09-13T03:32:54;9.17;;;6.23;;
38901;SDS011;24661;53.566;9.910;2022-09-13T03:35:41;12.03;;;8.00;;
38901;SDS011;24661;53.566;9.910;2022-09-13T03:38:40;9.07;;;5.80;;
38901;SDS011;24661;53.566;9.910;2022-09-13T03:41:15;9.33;;;6.23;;
38901;SDS011;24661;53.566;9.910;2022-09-13T03:43:47;9.77;;;6.43;;
38901;SDS011;24661;53.566;9.910;2022-09-13T03:46:42;11.70;;;7.80;;
38901;SDS011;24661;53.566;9.910;2022-09-13T03:49:15;13.20;;;8.87;;
38901;SDS011;24661;53.566;9.910;2022-09-13T03:51:42;8.53;;;7.33;;
38901;SDS011;24661;53.566;9.910;2022-09-13T03:54:16;10.90;;;8.07;;
38901;SDS011;24661;53.566;9.910;2022-09-13T03:57:04;10.20;;;7.80;;
38901;SDS011;24661;53.566;9.910;2022-09-13T03:59:46;10.97;;;7.90;;
38901;SDS011;24661;53.566;9.910;2022-09-13T04:02:14;13.50;;;9.23;;
38901;SDS011;24661;53.566;9.910;2022-09-13T04:04:40;12.13;;;9.83;;
38901;SDS011;24661;53.566;9.910;2022-09-13T04:07:07;12.27;;;8.70;;
38901;SDS011;24661;53.566;9.910;2022-09-13T04:09:34;15.17;;;10.20;;
38901;SDS011;24661;53.566;9.910;2022-09-13T04:12:00;13.47;;;10.00;;
38901;SDS011;24661;53.566;9.910;2022-09-13T04:14:26;13.87;;;10.43;;
38901;SDS011;24661;53.566;9.910;2022-09-13T04:16:52;17.00;;;13.17;;
38901;SDS011;24661;53.566;9.910;2022-09-13T04:19:19;19.37;;;11.77;;
38901;SDS011;24661;53.566;9.910;2022-09-13T04:21:48;16.50;;;10.80;;
38901;SDS011;24661;53.566;9.910;2022-09-13T04:24:15;13.40;;;10.87;;
38901;SDS011;24661;53.566;9.910;2022-09-13T04:26:42;16.00;;;11.40;;
38901;SDS011;24661;53.566;9.910;2022-09-13T04:29:09;17.87;;;10.60;;
38901;SDS011;24661;53.566;9.910;2022-09-13T04:31:35;14.00;;;11.57;;
38901;SDS011;24661;53.566;9.910;2022-09-13T04:34:01;15.53;;;11.13;;
38901;SDS011;24661;53.566;9.910;2022-09-13T04:36:28;16.03;;;12.40;;
38901;SDS011;24661;53.566;9.910;2022-09-13T04:38:55;15.27;;;11.27;;
38901;SDS011;24661;53.566;9.910;2022-09-13T04:41:21;21.13;;;12.67;;
38901;SDS011;24661;53.566;9.910;2022-09-13T04:43:49;16.90;;;13.03;;
38901;SDS011;24661;53.566;9.910;2022-09-13T04:46:15;19.00;;;13.63;;
38901;SDS011;24661;53.566;9.910;2022-09-13T04:48:41;17.23;;;13.03;;
38901;SDS011;24661;53.566;9.910;2022-09-13T04:51:07;18.87;;;12.40;;
38901;SDS011;24661;53.566;9.910;2022-09-13T04:53:33;20.03;;;12.77;;
38901;SDS011;24661;53.566;9.910;2022-09-13T04:56:00;20.07;;;13.57;;
38901;SDS011;24661;53.566;9.910;2022-09-13T04:58:26;19.13;;;14.43;;
38901;SDS011;24661;53.566;9.910;2022-09-13T05:00:52;20.67;;;14.87;;
38901;SDS011;24661;53.566;9.910;2022-09-13T05:03:21;23.10;;;14.57;;
38901;SDS011;24661;53.566;9.910;2022-09-13T05:05:46;23.80;;;16.00;;
38901;SDS011;24661;53.566;9.910;2022-09-13T05:08:12;28.27;;;16.33;;
38901;SDS011;24661;53.566;9.910;2022-09-13T05:10:38;24.73;;;15.90;;
38901;SDS011;24661;53.566;9.910;2022-09-13T05:13:03;29.47;;;17.13;;
38901;SDS011;24661;53.566;9.910;2022-09-13T05:15:29;28.73;;;17.13;;
38901;SDS011;24661;53.566;9.910;2022-09-13T05:17:54;25.10;;;17.60;;
38901;SDS011;24661;53.566;9.910;2022-09-13T05:20:20;25.50;;;16.60;;
38901;SDS011;24661;53.566;9.910;2022-09-13T05:22:45;23.33;;;17.37;;
38901;SDS011;24661;53.566;9.910;2022-09-13T05:25:11;25.30;;;17.93;;
38901;SDS011;24661;53.566;9.910;2022-09-13T05:27:37;24.53;;;17.83;;
38901;SDS011;24661;53.566;9.910;2022-09-13T05:30:03;29.93;;;18.70;;
38901;SDS011;24661;53.566;9.910;2022-09-13T05:32:30;26.57;;;18.97;;
38901;SDS011;24661;53.566;9.910;2022-09-13T05:34:56;32.23;;;18.83;;
38901;SDS011;24661;53.566;9.910;2022-09-13T05:37:21;29.30;;;19.53;;
38901;SDS011;24661;53.566;9.910;2022-09-13T05:39:47;27.67;;;18.73;;
38901;SDS011;24661;53.566;9.910;2022-09-13T05:42:12;32.57;;;19.27;;
38901;SDS011;24661;53.566;9.910;2022-09-13T05:44:38;30.20;;;18.63;;
38901;SDS011;24661;53.566;9.910;2022-09-13T05:47:03;28.30;;;19.47;;
38901;SDS011;24661;53.566;9.910;2022-09-13T05:49:29;27.13;;;17.40;;
38901;SDS011;24661;53.566;9.910;2022-09-13T05:51:56;25.73;;;17.77;;
38901;SDS011;24661;53.566;9.910;2022-09-13T05:54:22;28.93;;;18.83;;
38901;SDS011;24661;53.566;9.910;2022-09-13T05:56:47;25.13;;;16.77;;
38901;SDS011;24661;53.566;9.910;2022-09-13T05:59:13;30.17;;;19.23;;
38901;SDS011;24661;53.566;9.910;2022-09-13T06:01:38;26.37;;;18.50;;
38901;SDS011;24661;53.566;9.910;2022-09-13T06:04:04;30.73;;;18.20;;
38901;SDS011;24661;53.566;9.910;2022-09-13T06:06:30;23.50;;;17.27;;
38901;SDS011;24661;53.566;9.910;2022-09-13T06:08:56;23.17;;;16.97;;
38901;SDS011;24661;53.566;9.910;2022-09-13T06:11:22;30.23;;;19.70;;
38901;SDS011;24661;53.566;9.910;2022-09-13T06:13:49;27.87;;;18.07;;
38901;SDS011;24661;53.566;9.910;2022-09-13T06:16:15;26.90;;;18.87;;
38901;SDS011;24661;53.566;9.910;2022-09-13T06:18:41;31.27;;;20.43;;
38901;SDS011;24661;53.566;9.910;2022-09-13T06:21:08;29.97;;;18.20;;
38901;SDS011;24661;53.566;9.910;2022-09-13T06:23:36;27.93;;;18.07;;
38901;SDS011;24661;53.566;9.910;2022-09-13T06:26:05;31.67;;;19.10;;
38901;SDS011;24661;53.566;9.910;2022-09-13T06:28:33;30.83;;;19.07;;
38901;SDS011;24661;53.566;9.910;2022-09-13T06:31:05;25.80;;;18.60;;
38901;SDS011;24661;53.566;9.910;2022-09-13T06:33:33;27.77;;;19.30;;
38901;SDS011;24661;53.566;9.910;2022-09-13T06:36:02;31.77;;;20.97;;
38901;SDS011;24661;53.566;9.910;2022-09-13T06:38:29;26.13;;;17.97;;
38901;SDS011;24661;53.566;9.910;2022-09-13T06:43:46;26.97;;;19.53;;
38901;SDS011;24661;53.566;9.910;2022-09-13T06:46:13;27.17;;;17.60;;
38901;SDS011;24661;53.566;9.910;2022-09-13T06:48:41;25.37;;;18.10;;
38901;SDS011;24661;53.566;9.910;2022-09-13T06:51:09;28.60;;;18.00;;
38901;SDS011;24661;53.566;9.910;2022-09-13T06:53:40;28.53;;;18.20;;
38901;SDS011;24661;53.566;9.910;2022-09-13T06:56:07;26.33;;;17.23;;
38901;SDS011;24661;53.566;9.910;2022-09-13T06:58:37;27.90;;;19.00;;
38901;SDS011;24661;53.566;9.910;2022-09-13T07:01:11;32.13;;;17.17;;
38901;SDS011;24661;53.566;9.910;2022-09-13T07:03:49;25.07;;;15.33;;
38901;SDS011;24661;53.566;9.910;2022-09-13T07:06:20;27.23;;;17.33;;
38901;SDS011;24661;53.566;9.910;2022-09-13T07:08:47;25.87;;;16.13;;
38901;SDS011;24661;53.566;9.910;2022-09-13T07:11:15;24.33;;;16.07;;
38901;SDS011;24661;53.566;9.910;2022-09-13T07:13:48;23.13;;;16.73;;
38901;SDS011;24661;53.566;9.910;2022-09-13T07:16:15;31.87;;;20.07;;
38901;SDS011;24661;53.566;9.910;2022-09-13T07:18:41;23.70;;;15.97;;
38901;SDS011;24661;53.566;9.910;2022-09-13T07:21:07;20.70;;;14.23;;
38901;SDS011;24661;53.566;9.910;2022-09-13T07:23:35;23.67;;;13.80;;
38901;SDS011;24661;53.566;9.910;2022-09-13T07:26:02;24.27;;;14.60;;
38901;SDS011;24661;53.566;9.910;2022-09-13T07:28:36;22.53;;;16.33;;
38901;SDS011;24661;53.566;9.910;2022-09-13T07:31:16;34.73;;;26.00;;
38901;SDS011;24661;53.566;9.910;2022-09-13T07:33:44;33.10;;;18.90;;
38901;SDS011;24661;53.566;9.910;2022-09-13T07:36:10;21.77;;;14.23;;
38901;SDS011;24661;53.566;9.910;2022-09-13T07:38:37;26.20;;;14.13;;
38901;SDS011;24661;53.566;9.910;2022-09-13T07:41:09;20.60;;;12.97;;
38901;SDS011;24661;53.566;9.910;2022-09-13T07:43:37;22.37;;;12.97;;
38901;SDS011;24661;53.566;9.910;2022-09-13T07:46:03;22.87;;;13.47;;
38901;SDS011;24661;53.566;9.910;2022-09-13T07:48:31;27.30;;;15.20;;
38901;SDS011;24661;53.566;9.910;2022-09-13T07:51:06;16.83;;;11.60;;
38901;SDS011;24661;53.566;9.910;2022-09-13T07:53:33;18.17;;;11.73;;
38901;SDS011;24661;53.566;9.910;2022-09-13T07:56:04;14.87;;;10.20;;
38901;SDS011;24661;53.566;9.910;2022-09-13T07:58:33;26.43;;;10.67;;
38901;SDS011;24661;53.566;9.910;2022-09-13T08:01:01;22.10;;;9.10;;
38901;SDS011;24661;53.566;9.910;2022-09-13T08:03:33;15.27;;;8.50;;
38901;SDS011;24661;53.566;9.910;2022-09-13T08:06:00;12.30;;;8.10;;
38901;SDS011;24661;53.566;9.910;2022-09-13T08:08:27;11.77;;;6.83;;
38901;SDS011;24661;53.566;9.910;2022-09-13T08:10:53;8.30;;;6.03;;
38901;SDS011;24661;53.566;9.910;2022-09-13T08:13:19;13.83;;;6.03;;
38901;SDS011;24661;53.566;9.910;2022-09-13T08:15:44;10.07;;;5.43;;
38901;SDS011;24661;53.566;9.910;2022-09-13T08:18:10;9.27;;;5.00;;
38901;SDS011;24661;53.566;9.910;2022-09-13T08:20:36;9.83;;;3.93;;
38901;SDS011;24661;53.566;9.910;2022-09-13T08:23:05;6.93;;;3.30;;
38901;SDS011;24661;53.566;9.910;2022-09-13T08:25:32;6.93;;;3.50;;
38901;SDS011;24661;53.566;9.910;2022-09-13T08:27:59;5.57;;;3.07;;
38901;SDS011;24661;53.566;9.910;2022-09-13T08:30:26;9.27;;;2.50;;
38901;SDS011;24661;53.566;9.910;2022-09-13T08:32:57;17.77;;;3.23;;
38901;SDS011;24661;53.566;9.910;2022-09-13T08:35:24;6.00;;;2.13;;
38901;SDS011;24661;53.566;9.910;2022-09-13T08:37:49;9.97;;;2.43;;
38901;SDS011;24661;53.566;9.910;2022-09-13T08:40:15;8.40;;;2.03;;
38901;SDS011;24661;53.566;9.910;2022-09-13T08:42:57;3.93;;;1.90;;
38901;SDS011;24661;53.566;9.910;2022-09-13T08:45:31;4.07;;;2.63;;
38901;SDS011;24661;53.566;9.910;2022-09-13T08:51:04;10.33;;;1.80;;
38901;SDS011;24661;53.566;9.910;2022-09-13T08:53:44;8.37;;;2.13;;
38901;SDS011;24661;53.566;9.910;2022-09-13T08:56:22;4.50;;;1.53;;
38901;SDS011;24661;53.566;9.910;2022-09-13T09:01:57;6.33;;;1.20;;
38901;SDS011;24661;53.566;9.910;2022-09-13T09:06:52;7.57;;;1.43;;
38901;SDS011;24661;53.566;9.910;2022-09-13T09:09:28;4.27;;;1.37;;
38901;SDS011;24661;53.566;9.910;2022-09-13T09:12:01;4.87;;;1.13;;
38901;SDS011;24661;53.566;9.910;2022-09-13T09:14:46;6.83;;;3.60;;
38901;SDS011;24661;53.566;9.910;2022-09-13T09:20:25;5.17;;;1.93;;
38901;SDS011;24661;53.566;9.910;2022-09-13T09:23:02;8.50;;;1.47;;
38901;SDS011;24661;53.566;9.910;2022-09-13T09:25:31;9.67;;;1.30;;
38901;SDS011;24661;53.566;9.910;2022-09-13T09:27:58;5.10;;;1.40;;
38901;SDS011;24661;53.566;9.910;2022-09-13T09:30:28;4.27;;;1.07;;
38901;SDS011;24661;53.566;9.910;2022-09-13T09:38:32;7.83;;;1.10;;
38901;SDS011;24661;53.566;9.910;2022-09-13T09:41:13;5.33;;;1.40;;
38901;SDS011;24661;53.566;9.910;2022-09-13T09:43:49;4.50;;;1.10;;
38901;SDS011;24661;53.566;9.910;2022-09-13T09:46:36;6.47;;;1.47;;
38901;SDS011;24661;53.566;9.910;2022-09-13T09:49:18;5.67;;;1.33;;
38901;SDS011;24661;53.566;9.910;2022-09-13T09:52:09;5.77;;;1.60;;
38901;SDS011;24661;53.566;9.910;2022-09-13T09:54:36;6.10;;;1.50;;
38901;SDS011;24661;53.566;9.910;2022-09-13T09:57:03;12.50;;;1.83;;
38901;SDS011;24661;53.566;9.910;2022-09-13T09:59:32;5.90;;;1.23;;
38901;SDS011;24661;53.566;9.910;2022-09-13T10:01:59;5.03;;;1.23;;
38901;SDS011;24661;53.566;9.910;2022-09-13T10:04:28;10.37;;;2.00;;
38901;SDS011;24661;53.566;9.910;2022-09-13T10:07:09;7.17;;;1.93;;
38901;SDS011;24661;53.566;9.910;2022-09-13T10:09:52;7.13;;;1.43;;
38901;SDS011;24661;53.566;9.910;2022-09-13T10:12:26;4.30;;;1.60;;
38901;SDS011;24661;53.566;9.910;2022-09-13T10:15:02;4.40;;;1.40;;
38901;SDS011;24661;53.566;9.910;2022-09-13T10:17:39;4.83;;;1.20;;
38901;SDS011;24661;53.566;9.910;2022-09-13T10:22:39;6.80;;;1.63;;
38901;SDS011;24661;53.566;9.910;2022-09-13T10:25:13;7.83;;;1.87;;
38901;SDS011;24661;53.566;9.910;2022-09-13T10:27:50;3.90;;;0.90;;
38901;SDS011;24661;53.566;9.910;2022-09-13T10:30:39;7.63;;;2.40;;
38901;SDS011;24661;53.566;9.910;2022-09-13T10:33:23;5.70;;;1.73;;
38901;SDS011;24661;53.566;9.910;2022-09-13T10:36:00;3.90;;;0.93;;
38901;SDS011;24661;53.566;9.910;2022-09-13T10:38:33;7.03;;;1.80;;
38901;SDS011;24661;53.566;9.910;2022-09-13T10:41:03;9.07;;;2.10;;
38901;SDS011;24661;53.566;9.910;2022-09-13T10:43:45;6.53;;;1.30;;
38901;SDS011;24661;53.566;9.910;2022-09-13T10:46:12;3.17;;;1.03;;
38901;SDS011;24661;53.566;9.910;2022-09-13T10:48:46;3.93;;;1.40;;
38901;SDS011;24661;53.566;9.910;2022-09-13T10:51:21;3.90;;;1.07;;
38901;SDS011;24661;53.566;9.910;2022-09-13T10:56:48;4.83;;;1.10;;
38901;SDS011;24661;53.566;9.910;2022-09-13T10:59:22;4.63;;;1.67;;
38901;SDS011;24661;53.566;9.910;2022-09-13T11:09:35;4.70;;;1.00;;
38901;SDS011;24661;53.566;9.910;2022-09-13T11:12:17;5.57;;;1.13;;
38901;SDS011;24661;53.566;9.910;2022-09-13T11:15:18;3.83;;;1.13;;
38901;SDS011;24661;53.566;9.910;2022-09-13T11:20:46;3.70;;;0.90;;
38901;SDS011;24661;53.566;9.910;2022-09-13T11:23:25;53.60;;;47.80;;
38901;SDS011;24661;53.566;9.910;2022-09-13T11:28:47;7.77;;;1.33;;
38901;SDS011;24661;53.566;9.910;2022-09-13T11:31:57;7.23;;;2.00;;
38901;SDS011;24661;53.566;9.910;2022-09-13T11:34:36;3.37;;;1.10;;
38901;SDS011;24661;53.566;9.910;2022-09-13T11:39:47;6.43;;;1.10;;
38901;SDS011;24661;53.566;9.910;2022-09-13T11:56:34;11.40;;;1.57;;
38901;SDS011;24661;53.566;9.910;2022-09-13T11:59:14;7.03;;;1.30;;
38901;SDS011;24661;53.566;9.910;2022-09-13T12:01:48;3.37;;;1.00;;
38901;SDS011;24661;53.566;9.910;2022-09-13T12:04:24;4.70;;;1.40;;
38901;SDS011;24661;53.566;9.910;2022-09-13T12:06:54;5.27;;;1.10;;
38901;SDS011;24661;53.566;9.910;2022-09-13T12:09:25;5.17;;;1.13;;
38901;SDS011;24661;53.566;9.910;2022-09-13T12:12:04;9.83;;;1.37;;
38901;SDS011;24661;53.566;9.910;2022-09-13T12:14:41;4.67;;;1.13;;
38901;SDS011;24661;53.566;9.910;2022-09-13T12:17:29;19.23;;;1.90;;
38901;SDS011;24661;53.566;9.910;2022-09-13T12:20:05;4.47;;;1.57;;
38901;SDS011;24661;53.566;9.910;2022-09-13T12:22:37;8.37;;;2.73;;
38901;SDS011;24661;53.566;9.910;2022-09-13T12:25:16;7.93;;;1.87;;
38901;SDS011;24661;53.566;9.910;2022-09-13T12:27:48;4.27;;;1.10;;
38901;SDS011;24661;53.566;9.910;2022-09-13T12:30:21;11.53;;;1.50;;
38901;SDS011;24661;53.566;9.910;2022-09-13T12:32:49;6.47;;;1.37;;
38901;SDS011;24661;53.566;9.910;2022-09-13T12:35:20;9.67;;;1.57;;
38901;SDS011;24661;53.566;9.910;2022-09-13T12:38:32;7.47;;;1.30;;
38901;SDS011;24661;53.566;9.910;2022-09-13T13:08:03;4.23;;;1.50;;
38901;SDS011;24661;53.566;9.910;2022-09-13T13:13:38;5.47;;;1.43;;
38901;SDS011;24661;53.566;9.910;2022-09-13T13:25:29;4.47;;;1.33;;
38901;SDS011;24661;53.566;9.910;2022-09-13T13:27:57;6.83;;;1.30;;
38901;SDS011;24661;53.566;9.910;2022-09-13T13:30:37;8.77;;;1.47;;
38901;SDS011;24661;53.566;9.910;2022-09-13T13:35:50;10.87;;;1.40;;
38901;SDS011;24661;53.566;9.910;2022-09-13T13:40:53;6.17;;;1.00;;
38901;SDS011;24661;53.566;9.910;2022-09-13T13:43:33;7.53;;;1.40;;
38901;SDS011;24661;53.566;9.910;2022-09-13T13:48:39;7.67;;;1.20;;
38901;SDS011;24661;53.566;9.910;2022-09-13T13:51:13;7.83;;;1.30;;
38901;SDS011;24661;53.566;9.910;2022-09-13T13:53:46;4.30;;;1.20;;
38901;SDS011;24661;53.566;9.910;2022-09-13T13:59:25;5.57;;;1.30;;
38901;SDS011;24661;53.566;9.910;2022-09-13T14:01:56;10.23;;;1.37;;
38901;SDS011;24661;53.566;9.910;2022-09-13T14:04:36;5.53;;;1.33;;
38901;SDS011;24661;53.566;9.910;2022-09-13T14:10:13;6.37;;;3.77;;
38901;SDS011;24661;53.566;9.910;2022-09-13T14:12:50;4.57;;;1.33;;
38901;SDS011;24661;53.566;9.910;2022-09-13T14:18:30;5.87;;;1.83;;
38901;SDS011;24661;53.566;9.910;2022-09-13T14:21:00;7.80;;;1.93;;
38901;SDS011;24661;53.566;9.910;2022-09-13T14:23:42;8.33;;;1.47;;
38901;SDS011;24661;53.566;9.910;2022-09-13T14:26:09;10.67;;;2.53;;
38901;SDS011;24661;53.566;9.910;2022-09-13T14:28:36;10.27;;;2.07;;
38901;SDS011;24661;53.566;9.910;2022-09-13T14:31:02;13.13;;;2.20;;
38901;SDS011;24661;53.566;9.910;2022-09-13T14:33:29;7.07;;;2.40;;
38901;SDS011;24661;53.566;9.910;2022-09-13T14:36:00;10.17;;;1.50;;
38901;SDS011;24661;53.566;9.910;2022-09-13T14:38:45;7.00;;;1.47;;
38901;SDS011;24661;53.566;9.910;2022-09-13T14:41:18;10.50;;;2.37;;
38901;SDS011;24661;53.566;9.910;2022-09-13T14:43:46;9.40;;;1.80;;
38901;SDS011;24661;53.566;9.910;2022-09-13T14:46:34;8.03;;;2.13;;
38901;SDS011;24661;53.566;9.910;2022-09-13T14:49:05;10.60;;;1.73;;
38901;SDS011;24661;53.566;9.910;2022-09-13T14:57:08;8.13;;;2.80;;
38901;SDS011;24661;53.566;9.910;2022-09-13T14:59:44;6.60;;;1.40;;
38901;SDS011;24661;53.566;9.910;2022-09-13T15:02:18;8.10;;;1.63;;
38901;SDS011;24661;53.566;9.910;2022-09-13T15:04:50;5.30;;;1.30;;
38901;SDS011;24661;53.566;9.910;2022-09-13T15:07:34;11.00;;;1.80;;
38901;SDS011;24661;53.566;9.910;2022-09-13T15:12:33;11.40;;;2.50;;
38901;SDS011;24661;53.566;9.910;2022-09-13T15:15:20;6.97;;;1.80;;
38901;SDS011;24661;53.566;9.910;2022-09-13T15:23:33;8.53;;;1.50;;
38901;SDS011;24661;53.566;9.910;2022-09-13T15:31:07;10.13;;;3.20;;
38901;SDS011;24661;53.566;9.910;2022-09-13T15:33:34;9.40;;;1.67;;
38901;SDS011;24661;53.566;9.910;2022-09-13T15:39:00;7.40;;;1.63;;
38901;SDS011;24661;53.566;9.910;2022-09-13T15:41:33;10.73;;;2.30;;
38901;SDS011;24661;53.566;9.910;2022-09-13T15:44:00;10.67;;;2.17;;
38901;SDS011;24661;53.566;9.910;2022-09-13T15:46:28;7.53;;;1.90;;
38901;SDS011;24661;53.566;9.910;2022-09-13T15:48:54;8.60;;;2.03;;
38901;SDS011;24661;53.566;9.910;2022-09-13T15:51:26;7.20;;;1.67;;
38901;SDS011;24661;53.566;9.910;2022-09-13T15:53:52;4.93;;;1.70;;
38901;SDS011;24661;53.566;9.910;2022-09-13T15:56:30;8.80;;;1.20;;
38901;SDS011;24661;53.566;9.910;2022-09-13T15:58:58;8.00;;;2.00;;
38901;SDS011;24661;53.566;9.910;2022-09-13T16:01:24;7.13;;;1.47;;
38901;SDS011;24661;53.566;9.910;2022-09-13T16:03:51;8.10;;;1.93;;
38901;SDS011;24661;53.566;9.910;2022-09-13T16:06:17;6.23;;;1.53;;
38901;SDS011;24661;53.566;9.910;2022-09-13T16:08:42;6.47;;;1.30;;
38901;SDS011;24661;53.566;9.910;2022-09-13T16:11:08;8.17;;;1.33;;
38901;SDS011;24661;53.566;9.910;2022-09-13T16:13:33;5.13;;;1.20;;
38901;SDS011;24661;53.566;9.910;2022-09-13T16:16:00;4.60;;;1.30;;
38901;SDS011;24661;53.566;9.910;2022-09-13T16:18:26;3.83;;;1.00;;
38901;SDS011;24661;53.566;9.910;2022-09-13T16:20:51;6.70;;;1.43;;
38901;SDS011;24661;53.566;9.910;2022-09-13T16:23:17;3.20;;;0.90;;
38901;SDS011;24661;53.566;9.910;2022-09-13T16:25:43;4.17;;;1.03;;
38901;SDS011;24661;53.566;9.910;2022-09-13T16:28:12;5.37;;;1.00;;
38901;SDS011;24661;53.566;9.910;2022-09-13T16:30:41;10.30;;;1.83;;
38901;SDS011;24661;53.566;9.910;2022-09-13T16:33:07;2.40;;;0.90;;
38901;SDS011;24661;53.566;9.910;2022-09-13T16:35:33;5.80;;;1.57;;
38901;SDS011;24661;53.566;9.910;2022-09-13T16:37:58;7.50;;;1.53;;
38901;SDS011;24661;53.566;9.910;2022-09-13T16:40:24;4.33;;;1.97;;
38901;SDS011;24661;53.566;9.910;2022-09-13T16:42:50;6.43;;;1.33;;
38901;SDS011;24661;53.566;9.910;2022-09-13T16:45:16;9.23;;;1.30;;
38901;SDS011;24661;53.566;9.910;2022-09-13T16:47:41;4.60;;;1.30;;
38901;SDS011;24661;53.566;9.910;2022-09-13T16:50:08;4.63;;;1.03;;
38901;SDS011;24661;53.566;9.910;2022-09-13T16:52:37;2.90;;;1.40;;
38901;SDS011;24661;53.566;9.910;2022-09-13T16:55:04;8.40;;;0.97;;
38901;SDS011;24661;53.566;9.910;2022-09-13T16:57:30;5.23;;;1.23;;
38901;SDS011;24661;53.566;9.910;2022-09-13T16:59:56;5.57;;;1.10;;
38901;SDS011;24661;53.566;9.910;2022-09-13T17:02:23;8.60;;;2.23;;
38901;SDS011;24661;53.566;9.910;2022-09-13T17:04:51;7.37;;;1.83;;
38901;SDS011;24661;53.566;9.910;2022-09-13T17:07:17;2.97;;;1.20;;
38901;SDS011;24661;53.566;9.910;2022-09-13T17:09:43;8.57;;;3.47;;
38901;SDS011;24661;53.566;9.910;2022-09-13T17:12:10;5.97;;;1.80;;
38901;SDS011;24661;53.566;9.910;2022-09-13T17:14:38;8.43;;;2.00;;
38901;SDS011;24661;53.566;9.910;2022-09-13T17:17:07;4.77;;;1.10;;
38901;SDS011;24661;53.566;9.910;2022-09-13T17:19:33;12.17;;;9.57;;
38901;SDS011;24661;53.566;9.910;2022-09-13T17:22:00;10.70;;;2.40;;
38901;SDS011;24661;53.566;9.910;2022-09-13T17:24:27;4.70;;;1.43;;
38901;SDS011;24661;53.566;9.910;2022-09-13T17:26:55;4.27;;;1.30;;
38901;SDS011;24661;53.566;9.910;2022-09-13T17:29:21;7.53;;;1.50;;
38901;SDS011;24661;53.566;9.910;2022-09-13T17:31:49;6.23;;;1.57;;
38901;SDS011;24661;53.566;9.910;2022-09-13T17:34:15;8.10;;;1.53;;
38901;SDS011;24661;53.566;9.910;2022-09-13T17:36:41;4.93;;;1.23;;
38901;SDS011;24661;53.566;9.910;2022-09-13T17:39:07;6.23;;;1.43;;
38901;SDS011;24661;53.566;9.910;2022-09-13T17:41:34;8.10;;;1.47;;
38901;SDS011;24661;53.566;9.910;2022-09-13T17:44:00;7.63;;;1.47;;
38901;SDS011;24661;53.566;9.910;2022-09-13T17:46:26;10.27;;;1.70;;
38901;SDS011;24661;53.566;9.910;2022-09-13T17:48:56;14.60;;;6.70;;
38901;SDS011;24661;53.566;9.910;2022-09-13T17:51:24;7.47;;;2.30;;
38901;SDS011;24661;53.566;9.910;2022-09-13T17:53:53;13.60;;;3.70;;
38901;SDS011;24661;53.566;9.910;2022-09-13T17:56:23;6.93;;;2.13;;
38901;SDS011;24661;53.566;9.910;2022-09-13T17:59:02;8.80;;;2.73;;
38901;SDS011;24661;53.566;9.910;2022-09-13T18:01:31;9.90;;;1.63;;
38901;SDS011;24661;53.566;9.910;2022-09-13T18:03:56;14.30;;;2.37;;
38901;SDS011;24661;53.566;9.910;2022-09-13T18:06:23;4.70;;;1.73;;
38901;SDS011;24661;53.566;9.910;2022-09-13T18:08:52;5.47;;;1.63;;